sensor_id;sensor_type;location;lat;lon;timestamp;pressure;altitude;pressure_sealevel;temperature;humidity
63700;BME280;49845;47.130;142.766;2023-03-23T00:00:08;100355.34;;;7.67;69.15
63700;BME280;49845;47.130;142.766;2023-03-23T00:02:39;100357.06;;;7.71;68.45
63700;BME280;49845;47.130;142.766;2023-03-23T00:05:08;100357.00;;;7.87;67.72
63700;BME280;49845;47.130;142.766;2023-03-23T00:07:37;100362.16;;;8.02;67.53
63700;BME280;49845;47.130;142.766;2023-03-23T00:10:12;100359.50;;;8.08;66.89
63700;BME280;49845;47.130;142.766;2023-03-23T00:12:40;100355.13;;;8.13;66.50
63700;BME280;49845;47.130;142.766;2023-03-23T00:15:11;100351.72;;;8.11;66.29
63700;BME280;49845;47.130;142.766;2023-03-23T00:17:44;100353.38;;;8.21;66.45
63700;BME280;49845;47.130;142.766;2023-03-23T00:20:13;100364.59;;;8.34;66.02
63700;BME280;49845;47.130;142.766;2023-03-23T00:22:42;100352.38;;;8.50;65.82
63700;BME280;49845;47.130;142.766;2023-03-23T00:25:11;100351.38;;;8.70;65.38
63700;BME280;49845;47.130;142.766;2023-03-23T00:27:43;100360.78;;;8.89;64.76
63700;BME280;49845;47.130;142.766;2023-03-23T00:30:12;100340.78;;;8.88;64.24
63700;BME280;49845;47.130;142.766;2023-03-23T00:32:41;100345.91;;;9.00;64.12
63700;BME280;49845;47.130;142.766;2023-03-23T00:35:11;100347.50;;;9.17;63.65
63700;BME280;49845;47.130;142.766;2023-03-23T00:37:40;100334.44;;;9.21;63.23
63700;BME280;49845;47.130;142.766;2023-03-23T00:40:11;100330.00;;;9.28;63.02
63700;BME280;49845;47.130;142.766;2023-03-23T00:42:39;100336.06;;;9.32;62.94
63700;BME280;49845;47.130;142.766;2023-03-23T00:45:10;100316.94;;;9.34;62.78
63700;BME280;49845;47.130;142.766;2023-03-23T00:47:40;100314.09;;;9.53;62.83
63700;BME280;49845;47.130;142.766;2023-03-23T00:50:15;100285.53;;;9.42;62.43
63700;BME280;49845;47.130;142.766;2023-03-23T00:52:44;100302.69;;;9.63;62.13
63700;BME280;49845;47.130;142.766;2023-03-23T00:55:12;100313.97;;;9.66;62.02
63700;BME280;49845;47.130;142.766;2023-03-23T00:57:42;100308.84;;;9.56;61.79
63700;BME280;49845;47.130;142.766;2023-03-23T01:00:12;100308.97;;;9.46;62.03
63700;BME280;49845;47.130;142.766;2023-03-23T01:02:41;100301.16;;;9.46;62.52
63700;BME280;49845;47.130;142.766;2023-03-23T01:05:11;100288.25;;;9.33;62.33
63700;BME280;49845;47.130;142.766;2023-03-23T01:07:43;100285.50;;;9.46;62.49
63700;BME280;49845;47.130;142.766;2023-03-23T01:10:13;100264.72;;;9.37;61.98
63700;BME280;49845;47.130;142.766;2023-03-23T01:12:44;100273.38;;;9.42;62.15
63700;BME280;49845;47.130;142.766;2023-03-23T01:15:15;100253.53;;;9.29;62.10
63700;BME280;49845;47.130;142.766;2023-03-23T01:17:44;100270.78;;;9.39;61.95
63700;BME280;49845;47.130;142.766;2023-03-23T01:20:14;100250.69;;;9.49;61.87
63700;BME280;49845;47.130;142.766;2023-03-23T01:22:45;100259.13;;;9.68;61.91
63700;BME280;49845;47.130;142.766;2023-03-23T01:25:14;100227.91;;;9.62;61.58
63700;BME280;49845;47.130;142.766;2023-03-23T01:27:43;100251.09;;;9.83;61.47
63700;BME280;49845;47.130;142.766;2023-03-23T01:30:13;100244.09;;;9.88;60.73
63700;BME280;49845;47.130;142.766;2023-03-23T01:32:42;100244.06;;;9.90;60.95
63700;BME280;49845;47.130;142.766;2023-03-23T01:35:12;100244.00;;;9.94;60.80
63700;BME280;49845;47.130;142.766;2023-03-23T01:37:41;100240.50;;;9.96;60.56
63700;BME280;49845;47.130;142.766;2023-03-23T01:40:13;100229.31;;;9.87;60.71
63700;BME280;49845;47.130;142.766;2023-03-23T01:42:42;100222.47;;;9.79;60.96
63700;BME280;49845;47.130;142.766;2023-03-23T01:45:27;100225.16;;;9.74;60.94
63700;BME280;49845;47.130;142.766;2023-03-23T01:48:10;100224.19;;;9.78;60.97
63700;BME280;49845;47.130;142.766;2023-03-23T01:50:47;100220.25;;;9.49;61.07
63700;BME280;49845;47.130;142.766;2023-03-23T01:53:19;100224.00;;;9.27;61.69
63700;BME280;49845;47.130;142.766;2023-03-23T01:55:52;100223.25;;;9.16;62.27
63700;BME280;49845;47.130;142.766;2023-03-23T01:58:24;100212.81;;;9.19;62.41
63700;BME280;49845;47.130;142.766;2023-03-23T02:00:56;100201.09;;;9.54;61.71
63700;BME280;49845;47.130;142.766;2023-03-23T02:03:28;100199.00;;;9.77;61.18
63700;BME280;49845;47.130;142.766;2023-03-23T02:05:58;100193.00;;;9.70;60.30
63700;BME280;49845;47.130;142.766;2023-03-23T02:08:28;100207.69;;;9.79;60.23
63700;BME280;49845;47.130;142.766;2023-03-23T02:10:58;100205.91;;;9.81;60.49
63700;BME280;49845;47.130;142.766;2023-03-23T02:13:27;100202.47;;;9.79;60.54
63700;BME280;49845;47.130;142.766;2023-03-23T02:16:05;100193.84;;;9.74;60.55
63700;BME280;49845;47.130;142.766;2023-03-23T02:18:53;100206.81;;;9.79;60.45
63700;BME280;49845;47.130;142.766;2023-03-23T02:21:49;100207.16;;;9.53;61.20
63700;BME280;49845;47.130;142.766;2023-03-23T02:24:38;100195.94;;;9.47;61.34
63700;BME280;49845;47.130;142.766;2023-03-23T02:27:17;100187.34;;;9.39;61.17
63700;BME280;49845;47.130;142.766;2023-03-23T02:30:11;100075.31;;;8.63;61.32
63700;BME280;49845;47.130;142.766;2023-03-23T02:35:53;100167.13;;;9.55;61.07
63700;BME280;49845;47.130;142.766;2023-03-23T02:38:29;100167.59;;;9.83;60.70
63700;BME280;49845;47.130;142.766;2023-03-23T02:41:00;100165.75;;;9.91;60.26
63700;BME280;49845;47.130;142.766;2023-03-23T02:43:34;100166.28;;;10.13;60.16
63700;BME280;49845;47.130;142.766;2023-03-23T02:46:07;100158.31;;;10.21;59.07
63700;BME280;49845;47.130;142.766;2023-03-23T02:48:37;100166.00;;;10.30;58.92
63700;BME280;49845;47.130;142.766;2023-03-23T02:51:10;100119.94;;;10.26;58.90
63700;BME280;49845;47.130;142.766;2023-03-23T02:53:42;100152.38;;;10.64;58.35
63700;BME280;49845;47.130;142.766;2023-03-23T02:56:12;100153.69;;;10.87;57.68
63700;BME280;49845;47.130;142.766;2023-03-23T02:58:42;100144.94;;;10.88;57.29
63700;BME280;49845;47.130;142.766;2023-03-23T03:01:44;100130.94;;;10.92;57.85
63700;BME280;49845;47.130;142.766;2023-03-23T03:04:06;100104.72;;;10.95;57.40
63700;BME280;49845;47.130;142.766;2023-03-23T03:06:45;100140.81;;;11.19;56.71
63700;BME280;49845;47.130;142.766;2023-03-23T03:09:24;100153.06;;;11.19;56.91
63700;BME280;49845;47.130;142.766;2023-03-23T03:11:58;100140.53;;;10.91;56.85
63700;BME280;49845;47.130;142.766;2023-03-23T03:14:31;100123.53;;;10.69;57.45
63700;BME280;49845;47.130;142.766;2023-03-23T03:17:06;100129.97;;;10.51;58.17
63700;BME280;49845;47.130;142.766;2023-03-23T03:19:40;100143.28;;;10.35;58.41
63700;BME280;49845;47.130;142.766;2023-03-23T03:22:13;100138.50;;;10.09;58.78
63700;BME280;49845;47.130;142.766;2023-03-23T03:24:43;100129.16;;;9.94;58.85
63700;BME280;49845;47.130;142.766;2023-03-23T03:27:15;100127.44;;;9.93;58.99
63700;BME280;49845;47.130;142.766;2023-03-23T03:29:47;100090.31;;;9.76;59.16
63700;BME280;49845;47.130;142.766;2023-03-23T03:32:21;100066.25;;;9.57;59.59
63700;BME280;49845;47.130;142.766;2023-03-23T03:34:51;100088.25;;;9.95;59.68
63700;BME280;49845;47.130;142.766;2023-03-23T03:37:21;100093.97;;;10.17;59.45
63700;BME280;49845;47.130;142.766;2023-03-23T03:39:50;100088.69;;;10.20;59.04
63700;BME280;49845;47.130;142.766;2023-03-23T03:42:19;100076.59;;;10.16;59.29
63700;BME280;49845;47.130;142.766;2023-03-23T03:44:48;100066.81;;;10.26;59.96
63700;BME280;49845;47.130;142.766;2023-03-23T03:47:17;100043.78;;;10.51;60.03
63700;BME280;49845;47.130;142.766;2023-03-23T03:49:46;100026.63;;;10.79;60.30
63700;BME280;49845;47.130;142.766;2023-03-23T03:52:15;99933.41;;;10.40;60.06
63700;BME280;49845;47.130;142.766;2023-03-23T03:54:45;100005.38;;;10.95;60.06
63700;BME280;49845;47.130;142.766;2023-03-23T03:57:14;100005.19;;;11.04;60.00
63700;BME280;49845;47.130;142.766;2023-03-23T03:59:46;99991.44;;;10.96;59.41
63700;BME280;49845;47.130;142.766;2023-03-23T04:02:15;99999.59;;;10.80;59.39
63700;BME280;49845;47.130;142.766;2023-03-23T04:04:46;100023.25;;;10.74;59.03
63700;BME280;49845;47.130;142.766;2023-03-23T04:07:16;100010.97;;;10.36;59.13
63700;BME280;49845;47.130;142.766;2023-03-23T04:09:46;99972.03;;;10.21;59.66
63700;BME280;49845;47.130;142.766;2023-03-23T04:12:16;99986.09;;;10.15;59.54
63700;BME280;49845;47.130;142.766;2023-03-23T04:14:45;100008.56;;;10.22;58.98
63700;BME280;49845;47.130;142.766;2023-03-23T04:17:14;99993.31;;;10.01;58.32
63700;BME280;49845;47.130;142.766;2023-03-23T04:19:43;99986.66;;;9.83;58.77
63700;BME280;49845;47.130;142.766;2023-03-23T04:22:14;99975.81;;;9.58;59.04
63700;BME280;49845;47.130;142.766;2023-03-23T04:24:43;99947.94;;;9.09;59.53
63700;BME280;49845;47.130;142.766;2023-03-23T04:27:13;100005.28;;;9.09;60.06
63700;BME280;49845;47.130;142.766;2023-03-23T04:29:43;99953.72;;;8.66;61.13
63700;BME280;49845;47.130;142.766;2023-03-23T04:32:15;99976.34;;;8.63;61.78
63700;BME280;49845;47.130;142.766;2023-03-23T04:34:45;99959.09;;;8.53;62.34
63700;BME280;49845;47.130;142.766;2023-03-23T04:37:14;99957.19;;;8.68;62.43
63700;BME280;49845;47.130;142.766;2023-03-23T04:39:42;99967.38;;;8.83;62.06
63700;BME280;49845;47.130;142.766;2023-03-23T04:42:13;99984.59;;;8.95;62.13
63700;BME280;49845;47.130;142.766;2023-03-23T04:44:42;99984.41;;;9.09;61.60
63700;BME280;49845;47.130;142.766;2023-03-23T04:47:11;99944.47;;;9.06;61.44
63700;BME280;49845;47.130;142.766;2023-03-23T04:49:40;99957.50;;;9.06;61.58
63700;BME280;49845;47.130;142.766;2023-03-23T04:52:09;99975.84;;;9.00;61.91
63700;BME280;49845;47.130;142.766;2023-03-23T04:54:37;99960.53;;;8.79;62.11
63700;BME280;49845;47.130;142.766;2023-03-23T04:57:06;99941.56;;;8.68;63.26
63700;BME280;49845;47.130;142.766;2023-03-23T04:59:37;99934.63;;;8.67;63.95
63700;BME280;49845;47.130;142.766;2023-03-23T05:02:07;99940.59;;;8.73;64.17
63700;BME280;49845;47.130;142.766;2023-03-23T05:04:36;99891.38;;;8.56;64.59
63700;BME280;49845;47.130;142.766;2023-03-23T05:07:07;99886.06;;;8.64;64.83
63700;BME280;49845;47.130;142.766;2023-03-23T05:09:36;99872.69;;;8.85;64.76
63700;BME280;49845;47.130;142.766;2023-03-23T05:12:06;99868.97;;;9.02;64.38
63700;BME280;49845;47.130;142.766;2023-03-23T05:14:40;99886.75;;;9.29;63.59
63700;BME280;49845;47.130;142.766;2023-03-23T05:17:09;99885.13;;;9.24;63.85
63700;BME280;49845;47.130;142.766;2023-03-23T05:19:38;99853.91;;;9.19;63.44
63700;BME280;49845;47.130;142.766;2023-03-23T05:22:08;99840.22;;;9.06;63.81
63700;BME280;49845;47.130;142.766;2023-03-23T05:24:39;99852.47;;;9.01;64.07
63700;BME280;49845;47.130;142.766;2023-03-23T05:27:09;99819.00;;;8.75;63.67
63700;BME280;49845;47.130;142.766;2023-03-23T05:29:39;99865.91;;;8.77;63.38
63700;BME280;49845;47.130;142.766;2023-03-23T05:32:08;99869.63;;;8.59;63.46
63700;BME280;49845;47.130;142.766;2023-03-23T05:34:37;99844.88;;;8.26;63.63
63700;BME280;49845;47.130;142.766;2023-03-23T05:37:07;99874.53;;;8.15;64.21
63700;BME280;49845;47.130;142.766;2023-03-23T05:39:36;99852.47;;;7.74;64.83
63700;BME280;49845;47.130;142.766;2023-03-23T05:42:08;99876.72;;;7.76;65.54
63700;BME280;49845;47.130;142.766;2023-03-23T05:44:37;99858.63;;;7.69;66.12
63700;BME280;49845;47.130;142.766;2023-03-23T05:47:07;99861.31;;;7.58;66.19
63700;BME280;49845;47.130;142.766;2023-03-23T05:49:36;99872.59;;;7.57;66.40
63700;BME280;49845;47.130;142.766;2023-03-23T05:52:07;99868.31;;;7.53;66.79
63700;BME280;49845;47.130;142.766;2023-03-23T05:54:37;99884.13;;;7.31;67.00
63700;BME280;49845;47.130;142.766;2023-03-23T05:57:06;99880.78;;;7.17;67.70
63700;BME280;49845;47.130;142.766;2023-03-23T05:59:35;99873.13;;;6.99;68.52
63700;BME280;49845;47.130;142.766;2023-03-23T06:02:06;99878.31;;;7.00;68.60
63700;BME280;49845;47.130;142.766;2023-03-23T06:04:35;99867.97;;;6.93;68.82
63700;BME280;49845;47.130;142.766;2023-03-23T06:07:04;99841.25;;;6.78;68.76
63700;BME280;49845;47.130;142.766;2023-03-23T06:09:33;99851.59;;;6.81;69.46
63700;BME280;49845;47.130;142.766;2023-03-23T06:12:03;99851.59;;;6.84;68.99
63700;BME280;49845;47.130;142.766;2023-03-23T06:14:31;99849.88;;;6.83;69.46
63700;BME280;49845;47.130;142.766;2023-03-23T06:17:00;99847.28;;;6.83;69.56
63700;BME280;49845;47.130;142.766;2023-03-23T06:19:31;99841.22;;;6.81;69.50
63700;BME280;49845;47.130;142.766;2023-03-23T06:22:00;99842.06;;;6.85;69.86
63700;BME280;49845;47.130;142.766;2023-03-23T06:24:30;99829.03;;;6.93;69.93
63700;BME280;49845;47.130;142.766;2023-03-23T06:26:59;99842.88;;;6.95;69.71
63700;BME280;49845;47.130;142.766;2023-03-23T06:29:28;99816.91;;;6.95;69.99
63700;BME280;49845;47.130;142.766;2023-03-23T06:31:59;99738.44;;;6.56;69.30
63700;BME280;49845;47.130;142.766;2023-03-23T06:34:31;99811.66;;;6.98;69.56
63700;BME280;49845;47.130;142.766;2023-03-23T06:37:00;99808.09;;;7.08;69.51
63700;BME280;49845;47.130;142.766;2023-03-23T06:39:29;99815.03;;;7.06;69.38
63700;BME280;49845;47.130;142.766;2023-03-23T06:41:58;99810.78;;;7.00;69.33
63700;BME280;49845;47.130;142.766;2023-03-23T06:44:27;99804.75;;;6.97;69.54
63700;BME280;49845;47.130;142.766;2023-03-23T06:46:56;99810.81;;;6.97;69.56
63700;BME280;49845;47.130;142.766;2023-03-23T06:49:25;99802.97;;;6.99;69.38
63700;BME280;49845;47.130;142.766;2023-03-23T06:51:55;99798.75;;;6.90;69.29
63700;BME280;49845;47.130;142.766;2023-03-23T06:54:27;99800.47;;;6.93;69.68
63700;BME280;49845;47.130;142.766;2023-03-23T06:56:56;99804.78;;;6.90;69.48
63700;BME280;49845;47.130;142.766;2023-03-23T06:59:25;99823.91;;;6.86;69.52
63700;BME280;49845;47.130;142.766;2023-03-23T07:01:53;99830.84;;;6.84;69.33
63700;BME280;49845;47.130;142.766;2023-03-23T07:04:22;99834.28;;;6.83;69.73
63700;BME280;49845;47.130;142.766;2023-03-23T07:06:51;99827.38;;;6.82;69.33
63700;BME280;49845;47.130;142.766;2023-03-23T07:09:22;99811.06;;;6.66;68.96
63700;BME280;49845;47.130;142.766;2023-03-23T07:11:51;99812.13;;;6.36;69.23
63700;BME280;49845;47.130;142.766;2023-03-23T07:14:20;99800.09;;;6.26;70.32
63700;BME280;49845;47.130;142.766;2023-03-23T07:16:49;99777.78;;;5.97;70.71
63700;BME280;49845;47.130;142.766;2023-03-23T07:19:18;99801.94;;;6.05;70.70
63700;BME280;49845;47.130;142.766;2023-03-23T07:21:47;99800.25;;;5.92;70.94
63700;BME280;49845;47.130;142.766;2023-03-23T07:24:16;99791.66;;;5.78;71.24
63700;BME280;49845;47.130;142.766;2023-03-23T07:26:47;99801.22;;;5.68;72.20
63700;BME280;49845;47.130;142.766;2023-03-23T07:29:16;99778.78;;;5.61;72.32
63700;BME280;49845;47.130;142.766;2023-03-23T07:31:45;99771.03;;;5.55;72.76
63700;BME280;49845;47.130;142.766;2023-03-23T07:34:14;99762.41;;;5.48;72.99
63700;BME280;49845;47.130;142.766;2023-03-23T07:36:43;99772.78;;;5.45;73.61
63700;BME280;49845;47.130;142.766;2023-03-23T07:39:12;99750.38;;;5.35;73.48
63700;BME280;49845;47.130;142.766;2023-03-23T07:41:41;99734.84;;;5.29;73.67
63700;BME280;49845;47.130;142.766;2023-03-23T07:44:13;99751.25;;;5.32;74.16
63700;BME280;49845;47.130;142.766;2023-03-23T07:46:45;99740.03;;;5.32;73.87
63700;BME280;49845;47.130;142.766;2023-03-23T07:49:14;99740.03;;;5.32;74.38
63700;BME280;49845;47.130;142.766;2023-03-23T07:51:44;99759.88;;;5.31;74.25
63700;BME280;49845;47.130;142.766;2023-03-23T07:54:13;99748.66;;;5.31;74.40
63700;BME280;49845;47.130;142.766;2023-03-23T07:56:42;99745.25;;;5.23;74.45
63700;BME280;49845;47.130;142.766;2023-03-23T07:59:13;99703.00;;;4.93;74.63
63700;BME280;49845;47.130;142.766;2023-03-23T08:01:42;99736.63;;;5.17;74.49
63700;BME280;49845;47.130;142.766;2023-03-23T08:04:11;99757.34;;;5.14;74.76
63700;BME280;49845;47.130;142.766;2023-03-23T08:06:41;99747.88;;;5.12;75.10
63700;BME280;49845;47.130;142.766;2023-03-23T08:09:38;99739.25;;;5.07;75.14
63700;BME280;49845;47.130;142.766;2023-03-23T08:12:13;99747.03;;;5.02;75.33
63700;BME280;49845;47.130;142.766;2023-03-23T08:18:00;99747.00;;;4.96;75.67
63700;BME280;49845;47.130;142.766;2023-03-23T08:20:30;99768.59;;;4.98;75.59
63700;BME280;49845;47.130;142.766;2023-03-23T08:23:02;99755.66;;;4.95;75.74
63700;BME280;49845;47.130;142.766;2023-03-23T08:25:34;99756.50;;;4.94;76.09
63700;BME280;49845;47.130;142.766;2023-03-23T08:28:03;99721.16;;;4.71;76.13
63700;BME280;49845;47.130;142.766;2023-03-23T08:30:32;99748.75;;;4.88;76.21
63700;BME280;49845;47.130;142.766;2023-03-23T08:33:04;99753.94;;;4.92;76.64
63700;BME280;49845;47.130;142.766;2023-03-23T08:35:33;99756.50;;;4.98;76.27
63700;BME280;49845;47.130;142.766;2023-03-23T08:38:03;99747.88;;;4.98;76.19
63700;BME280;49845;47.130;142.766;2023-03-23T08:40:32;99750.47;;;4.95;76.31
63700;BME280;49845;47.130;142.766;2023-03-23T08:43:10;99750.47;;;4.98;76.60
63700;BME280;49845;47.130;142.766;2023-03-23T08:45:42;99728.00;;;5.03;76.48
63700;BME280;49845;47.130;142.766;2023-03-23T08:48:18;99720.25;;;4.98;76.91
63700;BME280;49845;47.130;142.766;2023-03-23T08:50:58;99701.28;;;5.03;77.54
63700;BME280;49845;47.130;142.766;2023-03-23T08:53:29;99710.75;;;4.99;78.03
63700;BME280;49845;47.130;142.766;2023-03-23T08:56:04;99721.09;;;4.99;78.14
63700;BME280;49845;47.130;142.766;2023-03-23T08:58:33;99716.00;;;4.87;78.37
63700;BME280;49845;47.130;142.766;2023-03-23T09:01:05;99710.78;;;4.84;78.91
63700;BME280;49845;47.130;142.766;2023-03-23T09:03:36;99703.91;;;4.76;78.89
63700;BME280;49845;47.130;142.766;2023-03-23T09:06:09;99698.75;;;4.69;79.09
63700;BME280;49845;47.130;142.766;2023-03-23T09:08:40;99690.13;;;4.65;79.51
63700;BME280;49845;47.130;142.766;2023-03-23T09:11:16;99707.41;;;4.60;79.93
63700;BME280;49845;47.130;142.766;2023-03-23T09:13:48;99688.44;;;4.43;80.09
63700;BME280;49845;47.130;142.766;2023-03-23T09:16:17;99695.34;;;4.38;80.81
63700;BME280;49845;47.130;142.766;2023-03-23T09:18:47;99678.06;;;4.37;80.69
63700;BME280;49845;47.130;142.766;2023-03-23T09:21:20;99681.53;;;4.32;81.53
63700;BME280;49845;47.130;142.766;2023-03-23T09:23:52;99671.19;;;4.36;82.01
63700;BME280;49845;47.130;142.766;2023-03-23T09:26:43;99675.50;;;4.46;82.40
63700;BME280;49845;47.130;142.766;2023-03-23T09:29:12;99662.56;;;4.43;82.37
63700;BME280;49845;47.130;142.766;2023-03-23T09:31:47;99662.56;;;4.46;82.80
63700;BME280;49845;47.130;142.766;2023-03-23T09:34:18;99667.72;;;4.49;82.95
63700;BME280;49845;47.130;142.766;2023-03-23T09:36:50;99644.47;;;4.43;83.05
63700;BME280;49845;47.130;142.766;2023-03-23T09:39:23;99655.66;;;4.49;83.09
63700;BME280;49845;47.130;142.766;2023-03-23T09:42:06;99623.75;;;4.37;83.00
63700;BME280;49845;47.130;142.766;2023-03-23T09:44:49;99643.59;;;4.47;82.53
63700;BME280;49845;47.130;142.766;2023-03-23T09:47:28;99644.47;;;4.27;82.53
63700;BME280;49845;47.130;142.766;2023-03-23T09:50:10;99648.78;;;4.22;82.19
63700;BME280;49845;47.130;142.766;2023-03-23T09:52:54;99643.59;;;4.19;82.32
63700;BME280;49845;47.130;142.766;2023-03-23T09:55:26;99647.94;;;4.09;82.84
63700;BME280;49845;47.130;142.766;2023-03-23T09:58:01;99642.75;;;4.16;83.00
63700;BME280;49845;47.130;142.766;2023-03-23T10:00:34;99633.28;;;4.22;83.71
63700;BME280;49845;47.130;142.766;2023-03-23T10:03:12;99623.78;;;4.18;83.25
63700;BME280;49845;47.130;142.766;2023-03-23T10:05:46;99614.31;;;4.08;83.14
63700;BME280;49845;47.130;142.766;2023-03-23T10:08:18;99602.25;;;3.95;84.03
63700;BME280;49845;47.130;142.766;2023-03-23T10:11:00;99629.81;;;4.08;84.25
63700;BME280;49845;47.130;142.766;2023-03-23T10:13:54;99607.44;;;3.98;84.15
63700;BME280;49845;47.130;142.766;2023-03-23T10:16:28;99631.56;;;4.03;84.47
63700;BME280;49845;47.130;142.766;2023-03-23T10:19:01;99616.03;;;4.03;84.72
63700;BME280;49845;47.130;142.766;2023-03-23T10:21:37;99606.56;;;4.13;84.67
63700;BME280;49845;47.130;142.766;2023-03-23T10:24:13;99609.13;;;4.14;84.52
63700;BME280;49845;47.130;142.766;2023-03-23T10:26:51;99609.13;;;4.20;84.62
63700;BME280;49845;47.130;142.766;2023-03-23T10:29:30;99603.97;;;4.28;84.66
63700;BME280;49845;47.130;142.766;2023-03-23T10:32:08;99612.56;;;4.31;84.68
63700;BME280;49845;47.130;142.766;2023-03-23T10:34:42;99605.69;;;4.24;84.64
63700;BME280;49845;47.130;142.766;2023-03-23T10:37:18;99605.69;;;4.15;84.81
63700;BME280;49845;47.130;142.766;2023-03-23T10:39:51;99556.59;;;3.80;85.11
63700;BME280;49845;47.130;142.766;2023-03-23T10:42:27;99588.44;;;4.11;85.48
63700;BME280;49845;47.130;142.766;2023-03-23T10:45:00;99585.00;;;4.15;85.53
63700;BME280;49845;47.130;142.766;2023-03-23T10:47:29;99570.34;;;4.14;85.85
63700;BME280;49845;47.130;142.766;2023-03-23T10:50:06;99557.41;;;4.14;86.09
63700;BME280;49845;47.130;142.766;2023-03-23T10:52:41;99542.78;;;4.08;86.48
63700;BME280;49845;47.130;142.766;2023-03-23T10:55:17;99535.03;;;4.04;86.35
63700;BME280;49845;47.130;142.766;2023-03-23T11:01:12;99541.06;;;3.94;86.74
63700;BME280;49845;47.130;142.766;2023-03-23T11:03:45;99526.44;;;3.83;87.18
63700;BME280;49845;47.130;142.766;2023-03-23T11:06:20;99516.97;;;3.88;87.26
63700;BME280;49845;47.130;142.766;2023-03-23T11:09:12;99526.44;;;3.86;87.33
63700;BME280;49845;47.130;142.766;2023-03-23T11:11:52;99499.75;;;3.61;87.61
63700;BME280;49845;47.130;142.766;2023-03-23T11:14:26;99528.16;;;3.78;87.60
63700;BME280;49845;47.130;142.766;2023-03-23T11:16:56;99526.44;;;3.79;88.28
63700;BME280;49845;47.130;142.766;2023-03-23T11:19:28;99519.56;;;3.73;88.06
63700;BME280;49845;47.130;142.766;2023-03-23T11:22:13;99510.97;;;3.68;88.71
63700;BME280;49845;47.130;142.766;2023-03-23T11:24:53;99519.56;;;3.82;89.10
63700;BME280;49845;47.130;142.766;2023-03-23T11:27:30;99493.72;;;3.61;88.85
63700;BME280;49845;47.130;142.766;2023-03-23T11:30:08;99502.31;;;3.81;89.26
63700;BME280;49845;47.130;142.766;2023-03-23T11:32:44;99447.22;;;3.52;89.01
63700;BME280;49845;47.130;142.766;2023-03-23T11:35:20;99498.00;;;3.88;89.51
63700;BME280;49845;47.130;142.766;2023-03-23T11:37:53;99512.63;;;4.03;89.13
63700;BME280;49845;47.130;142.766;2023-03-23T11:40:30;99519.53;;;3.98;89.21
63700;BME280;49845;47.130;142.766;2023-03-23T11:43:09;99514.34;;;4.01;89.39
63700;BME280;49845;47.130;142.766;2023-03-23T11:45:49;99522.97;;;4.06;89.01
63700;BME280;49845;47.130;142.766;2023-03-23T11:48:28;99523.84;;;4.00;88.91
63700;BME280;49845;47.130;142.766;2023-03-23T11:51:11;99518.66;;;4.02;89.35
63700;BME280;49845;47.130;142.766;2023-03-23T11:53:50;99524.69;;;4.04;89.43
63700;BME280;49845;47.130;142.766;2023-03-23T11:56:38;99523.84;;;3.96;89.64
63700;BME280;49845;47.130;142.766;2023-03-23T11:59:13;99530.75;;;4.00;90.04
63700;BME280;49845;47.130;142.766;2023-03-23T12:01:52;99544.53;;;3.97;89.91
63700;BME280;49845;47.130;142.766;2023-03-23T12:05:25;99540.22;;;3.88;90.29
63700;BME280;49845;47.130;142.766;2023-03-23T12:11:07;99540.22;;;4.01;91.08
63700;BME280;49845;47.130;142.766;2023-03-23T12:13:52;99522.09;;;4.04;90.95
63700;BME280;49845;47.130;142.766;2023-03-23T12:16:36;99509.19;;;4.07;91.26
63700;BME280;49845;47.130;142.766;2023-03-23T12:19:14;99498.81;;;4.13;91.22
63700;BME280;49845;47.130;142.766;2023-03-23T12:21:52;99480.75;;;4.01;90.68
63700;BME280;49845;47.130;142.766;2023-03-23T12:24:33;99497.13;;;4.12;90.81
63700;BME280;49845;47.130;142.766;2023-03-23T12:27:10;99476.41;;;4.09;90.87
63700;BME280;49845;47.130;142.766;2023-03-23T12:29:52;99486.78;;;4.12;90.90
63700;BME280;49845;47.130;142.766;2023-03-23T12:32:40;99496.22;;;4.19;91.27
63700;BME280;49845;47.130;142.766;2023-03-23T12:35:22;99493.63;;;4.19;91.57
63700;BME280;49845;47.130;142.766;2023-03-23T12:38:07;99493.63;;;4.19;91.19
63700;BME280;49845;47.130;142.766;2023-03-23T12:41:00;99478.13;;;4.16;91.11
63700;BME280;49845;47.130;142.766;2023-03-23T12:43:38;99474.69;;;4.14;91.98
63700;BME280;49845;47.130;142.766;2023-03-23T12:46:28;99468.66;;;4.14;91.92
63700;BME280;49845;47.130;142.766;2023-03-23T12:49:05;99461.75;;;4.11;91.75
63700;BME280;49845;47.130;142.766;2023-03-23T12:51:45;99456.63;;;4.05;91.72
63700;BME280;49845;47.130;142.766;2023-03-23T12:54:22;99454.88;;;4.04;91.89
63700;BME280;49845;47.130;142.766;2023-03-23T12:57:01;99464.38;;;4.05;91.85
63700;BME280;49845;47.130;142.766;2023-03-23T12:59:38;99470.41;;;3.99;91.69
63700;BME280;49845;47.130;142.766;2023-03-23T13:02:21;99446.31;;;3.86;91.64
63700;BME280;49845;47.130;142.766;2023-03-23T13:04:57;99457.53;;;3.79;91.44
63700;BME280;49845;47.130;142.766;2023-03-23T13:07:34;99462.72;;;3.70;91.67
63700;BME280;49845;47.130;142.766;2023-03-23T13:10:15;99455.84;;;3.66;91.90
63700;BME280;49845;47.130;142.766;2023-03-23T13:12:49;99452.41;;;3.62;92.58
63700;BME280;49845;47.130;142.766;2023-03-23T13:15:31;99458.44;;;3.52;92.19
63700;BME280;49845;47.130;142.766;2023-03-23T13:18:10;99461.03;;;3.38;92.59
63700;BME280;49845;47.130;142.766;2023-03-23T13:20:55;99464.47;;;3.10;92.89
63700;BME280;49845;47.130;142.766;2023-03-23T13:23:30;99450.63;;;2.77;94.23
63700;BME280;49845;47.130;142.766;2023-03-23T13:26:01;99472.88;;;2.35;94.32
63700;BME280;49845;47.130;142.766;2023-03-23T13:28:48;99417.31;;;1.32;92.22